Hughenden, Queensland

1:40 AM EST on August 02, 2014 (GMT +1000)
Hughenden (YHUG) Elev 1040 ft | 20.82 °S, 144.23 °E | Change Station

Current weather conditions updated 40 minutes ago

Clear
Clear
63 °F
Feels Like 63 °F
N
13
Wind Variable Wind from South
Gusts mph

Today is forecast to be Cooler than yesterday.

Today
High -- | Low -- °F
--% Chance of Precip.
Yesterday
High -- | Low -- °F
Precip. -- in
6:53 AM 6:05 PM
Waxing Crescent, 27% visible
Pressure 30.12 in
Visibility -9999.0 miles
Clouds
Dew Point 27 °F
Humidity 26%
Rainfall 0.00 in
Snow Depth Not available.
UV Not available.
Pollen Not available.
Air Quality Not available.
Flu Activity Not available.
METAR YHUG 011500Z AUTO 17011KT //// // ////// 17/M03 Q1020

More Conditions Fewer Conditions

Pressure 30.12 in
Visibility -9999.0 miles
Clouds
Dew Point 27 °F
Humidity 26%
Rainfall 0.00 in
Snow Depth Not available.
UV Not available.
Pollen Not available.
Air Quality Not available.
Flu Activity Not available.
METAR YHUG 011500Z AUTO 17011KT //// // ////// 17/M03 Q1020

More Conditions Fewer Conditions

10-Day Weather Forecast

Almanac

Astronomy

Aug. 02, 2014 Rise Set
Actual Time 6:53 AM EST 6:05 PM EST
Civil Twilight 6:30 AM EST 6:28 PM EST
Nautical Twilight 6:04 AM EST 6:55 PM EST
Astronomical Twilight 5:37 AM EST 7:21 PM EST
Moon 10:30 AM EST (8/2) 11:17 PM EST (8/2)
Length of Visible Light 11h 57m
Length of Day
11h 11m
Tomorrow will be 0m 51s longer.
Waxing Crescent, 27% of the Moon is Illuminated
Aug 1
Waxing Crescent
Aug 3
First Quarter
Aug 10
Full
Aug 17
Last Quarter
Aug 25
New

Yesterday's Extremes

Country Highs Country Lows

Community

WunderPhotos

Upload Photos

1,739,618 photos uploaded!

Nearby

Snow Depth

Not available.

Earthquake Activity

City Distance Mag. Time & Date
No recent earthquake activity has been reported nearby.
Minimum magnitude displayed is 2.5.

Coastal Water Temperatures

Place Temperature
No Stations Reporting

Nearby Weather Stations

There are no personal weather stations in this area.